createdAt,value
2018-03-16T00:01:56.609Z,26.07
2018-03-16T00:04:23.536Z,25.50
2018-03-16T00:06:50.491Z,27.50
2018-03-16T00:09:17.438Z,25.40
2018-03-16T00:11:44.309Z,29.60
2018-03-16T00:14:11.184Z,25.60
2018-03-16T00:16:38.129Z,25.03
2018-03-16T00:19:04.999Z,26.90
2018-03-16T00:21:31.931Z,23.40
2018-03-16T00:23:58.804Z,26.20
2018-03-16T00:26:25.782Z,25.57
2018-03-16T00:28:52.647Z,25.07
2018-03-16T00:31:19.575Z,26.80
2018-03-16T00:33:46.447Z,24.77
2018-03-16T00:36:13.419Z,24.33
2018-03-16T00:38:40.323Z,25.73
2018-03-16T00:41:07.996Z,25.70
2018-03-16T00:43:34.883Z,25.60
2018-03-16T00:46:01.832Z,24.27
2018-03-16T00:48:28.707Z,27.13
2018-03-16T00:50:55.643Z,25.27
2018-03-16T00:53:22.575Z,26.87
2018-03-16T00:55:49.502Z,27.83
2018-03-16T00:58:16.436Z,29.53
2018-03-16T01:00:43.394Z,25.60
2018-03-16T01:03:10.356Z,29.07
2018-03-16T01:05:37.291Z,28.40
2018-03-16T01:08:04.254Z,27.40
2018-03-16T01:10:31.167Z,29.77
2018-03-16T01:12:58.040Z,25.90
2018-03-16T01:15:25.024Z,28.20
2018-03-16T01:17:56.369Z,26.77
2018-03-16T01:20:41.878Z,26.67
2018-03-16T01:23:24.785Z,26.23
2018-03-16T01:26:01.111Z,27.43
2018-03-16T01:28:28.046Z,22.53
2018-03-16T01:30:54.916Z,23.30
2018-03-16T01:33:21.850Z,24.77
2018-03-16T01:35:48.724Z,22.90
2018-03-16T01:38:16.396Z,25.43
2018-03-16T01:40:44.079Z,23.93
2018-03-16T01:43:10.974Z,25.67
2018-03-16T01:45:38.010Z,23.37
2018-03-16T01:48:04.888Z,23.10
2018-03-16T01:50:32.603Z,25.33
2018-03-16T01:53:11.527Z,25.80
2018-03-16T01:55:38.466Z,23.03
2018-03-16T01:58:05.410Z,21.63
2018-03-16T02:00:32.283Z,23.47
2018-03-16T02:02:59.237Z,23.10
2018-03-16T02:05:26.168Z,19.80
2018-03-16T02:07:53.028Z,21.07
2018-03-16T02:10:20.008Z,23.80
2018-03-16T02:12:47.615Z,22.77
2018-03-16T02:15:14.554Z,21.70
2018-03-16T02:17:41.486Z,19.60
2018-03-16T02:20:08.441Z,22.67
2018-03-16T02:22:35.304Z,21.90
2018-03-16T02:25:02.324Z,21.33
2018-03-16T02:27:29.283Z,21.23
2018-03-16T02:29:56.225Z,22.73
2018-03-16T02:32:23.187Z,23.40
2018-03-16T02:34:50.137Z,22.87
2018-03-16T02:37:17.024Z,21.53
2018-03-16T02:39:44.716Z,22.90
2018-03-16T02:42:11.595Z,22.27
2018-03-16T02:44:38.528Z,19.97
2018-03-16T02:47:05.404Z,21.73
2018-03-16T02:49:32.331Z,20.73
2018-03-16T02:51:59.280Z,22.13
2018-03-16T02:54:26.233Z,23.27
2018-03-16T02:56:53.092Z,20.87
2018-03-16T02:59:20.035Z,22.10
2018-03-16T03:01:46.988Z,20.53
2018-03-16T03:04:13.848Z,22.97
2018-03-16T03:06:41.463Z,20.43
2018-03-16T03:09:08.389Z,21.57
2018-03-16T03:11:35.265Z,20.10
2018-03-16T03:14:02.293Z,19.97
2018-03-16T03:16:29.174Z,21.20
2018-03-16T03:18:56.869Z,21.97
2018-03-16T03:21:23.723Z,22.87
2018-03-16T03:23:50.660Z,22.80
2018-03-16T03:26:17.524Z,22.53
2018-03-16T03:28:44.479Z,21.30
2018-03-16T03:31:11.362Z,21.00
2018-03-16T03:33:38.300Z,22.93
2018-03-16T03:36:05.213Z,20.90
2018-03-16T03:38:32.143Z,24.43
2018-03-16T03:40:59.012Z,22.60
2018-03-16T03:43:25.991Z,23.20
2018-03-16T03:45:52.856Z,23.73
2018-03-16T03:48:20.464Z,19.90
2018-03-16T03:50:47.403Z,19.93
2018-03-16T03:53:14.283Z,21.97
2018-03-16T03:55:41.219Z,17.80
2018-03-16T03:58:08.099Z,19.43
2018-03-16T04:00:35.763Z,20.07
2018-03-16T04:03:03.436Z,17.97
2018-03-16T04:05:30.360Z,19.67
2018-03-16T04:07:57.220Z,20.77
2018-03-16T04:10:24.824Z,19.37
2018-03-16T04:12:51.791Z,18.77
2018-03-16T04:15:18.674Z,17.80
2018-03-16T04:17:45.605Z,18.67
2018-03-16T04:20:12.531Z,20.40
2018-03-16T04:22:39.474Z,17.37
2018-03-16T04:25:06.402Z,18.40
2018-03-16T04:27:33.340Z,20.17
2018-03-16T04:30:00.211Z,17.00
2018-03-16T04:32:27.160Z,19.23
2018-03-16T04:34:54.025Z,20.13
2018-03-16T04:37:20.882Z,18.57
2018-03-16T04:39:48.560Z,17.53
2018-03-16T04:42:15.428Z,17.47
2018-03-16T04:44:42.297Z,20.23
2018-03-16T04:47:09.304Z,17.83
2018-03-16T04:49:36.163Z,16.87
2018-03-16T04:52:03.205Z,16.77
2018-03-16T04:54:30.097Z,18.37
2018-03-16T04:56:57.027Z,16.93
2018-03-16T04:59:23.896Z,14.67
2018-03-16T05:01:51.794Z,19.40
2018-03-16T05:04:19.458Z,16.30
2018-03-16T05:06:46.380Z,16.93
2018-03-16T05:09:13.249Z,15.20
2018-03-16T05:11:40.197Z,16.00
2018-03-16T05:14:07.125Z,17.07
2018-03-16T05:16:34.733Z,15.20
2018-03-16T05:19:01.674Z,15.83
2018-03-16T05:21:28.545Z,18.57
2018-03-16T05:23:56.431Z,16.40
2018-03-16T05:26:26.055Z,16.33
2018-03-16T05:28:54.644Z,16.23
2018-03-16T05:31:21.670Z,17.00
2018-03-16T05:33:49.284Z,17.30
2018-03-16T05:36:16.145Z,18.27
2018-03-16T05:38:43.108Z,17.67
2018-03-16T05:41:10.042Z,20.57
2018-03-16T05:43:37.042Z,18.62
2018-03-16T05:46:04.074Z,21.43
2018-03-16T05:48:31.209Z,16.10
2018-03-16T05:50:58.429Z,16.87
2018-03-16T05:53:25.352Z,16.40
2018-03-16T05:55:52.334Z,18.13
2018-03-16T05:58:19.208Z,18.13
2018-03-16T06:00:57.944Z,18.63
2018-03-16T06:03:25.655Z,17.00
2018-03-16T06:05:52.516Z,19.03
2018-03-16T06:08:19.459Z,17.83
2018-03-16T06:10:46.368Z,17.40
2018-03-16T06:13:13.302Z,19.47
2018-03-16T06:15:40.175Z,15.60
2018-03-16T06:18:07.098Z,18.30
2018-03-16T06:20:33.967Z,18.10
2018-03-16T06:23:00.912Z,16.97
2018-03-16T06:25:27.791Z,19.17
2018-03-16T06:27:54.664Z,18.30
2018-03-16T06:30:22.329Z,16.90
2018-03-16T06:32:50.012Z,17.77
2018-03-16T06:35:16.886Z,16.37
2018-03-16T06:37:43.896Z,17.73
2018-03-16T06:40:10.893Z,17.60
2018-03-16T06:42:37.758Z,15.70
2018-03-16T06:45:04.820Z,17.90
2018-03-16T06:47:31.663Z,18.40
2018-03-16T06:49:59.433Z,18.17
2018-03-16T06:52:26.404Z,17.77
2018-03-16T06:54:53.292Z,16.83
2018-03-16T06:57:20.240Z,20.43
2018-03-16T06:59:47.108Z,18.10
2018-03-16T07:02:14.815Z,28.13
2018-03-16T07:04:41.750Z,23.50
2018-03-16T07:07:08.675Z,23.93
2018-03-16T07:09:35.563Z,21.57
2018-03-16T07:12:02.530Z,18.50
2018-03-16T07:14:29.480Z,17.43
2018-03-16T07:16:56.417Z,19.60
2018-03-16T07:19:23.356Z,19.33
2018-03-16T07:24:41.187Z,20.20
2018-03-16T07:27:08.107Z,19.00
2018-03-16T07:29:37.324Z,20.30
2018-03-16T07:32:04.484Z,22.00
2018-03-16T07:34:31.353Z,20.60
2018-03-16T07:36:58.833Z,23.80
2018-03-16T07:39:25.800Z,30.60
2018-03-16T07:41:53.563Z,30.67
2018-03-16T07:44:21.324Z,21.43
2018-03-16T07:46:48.210Z,28.87
2018-03-16T07:49:15.244Z,24.90
2018-03-16T07:51:42.116Z,24.57
2018-03-16T07:54:09.010Z,21.20
2018-03-16T07:56:36.692Z,21.57
2018-03-16T07:59:03.566Z,20.73
2018-03-16T08:01:30.499Z,18.63
2018-03-16T08:03:57.368Z,20.20
2018-03-16T08:06:24.335Z,22.40
2018-03-16T08:08:51.204Z,19.30
2018-03-16T08:11:18.193Z,24.70
2018-03-16T08:13:45.140Z,20.53
2018-03-16T08:16:12.017Z,19.77
2018-03-16T08:18:39.024Z,20.00
2018-03-16T08:21:05.908Z,21.33
2018-03-16T08:23:32.856Z,21.60
2018-03-16T08:25:59.727Z,21.27
2018-03-16T08:28:27.404Z,21.53
2018-03-16T08:30:54.280Z,21.03
2018-03-16T08:33:21.216Z,22.03
2018-03-16T08:35:48.107Z,23.33
2018-03-16T08:38:15.047Z,21.50
2018-03-16T08:40:41.991Z,18.27
2018-03-16T08:43:08.930Z,20.70
2018-03-16T08:45:35.796Z,19.67
2018-03-16T08:48:02.739Z,19.03
2018-03-16T08:50:29.614Z,19.70
2018-03-16T08:52:56.541Z,20.40
2018-03-16T08:55:24.220Z,20.17
2018-03-16T08:57:51.079Z,18.63
2018-03-16T09:00:18.109Z,20.17
2018-03-16T09:02:45.012Z,18.73
2018-03-16T09:05:11.929Z,17.60
2018-03-16T09:07:38.876Z,16.50
2018-03-16T09:10:05.803Z,16.97
2018-03-16T09:12:32.880Z,17.10
2018-03-16T09:14:59.796Z,18.10
2018-03-16T09:17:27.564Z,15.93
2018-03-16T09:19:54.427Z,17.37
2018-03-16T09:22:21.375Z,18.73
2018-03-16T09:24:48.259Z,22.20
2018-03-16T09:27:15.137Z,15.57
2018-03-16T09:29:42.104Z,19.33
2018-03-16T09:32:08.996Z,17.13
2018-03-16T09:34:35.954Z,17.57
2018-03-16T09:37:02.879Z,16.07
2018-03-16T09:39:29.830Z,14.57
2018-03-16T09:41:56.776Z,15.63
2018-03-16T09:44:23.644Z,14.47
2018-03-16T09:46:51.330Z,13.93
2018-03-16T09:49:18.216Z,14.13
2018-03-16T09:51:45.267Z,14.13
2018-03-16T09:54:12.320Z,12.73
2018-03-16T09:56:39.196Z,12.07
2018-03-16T09:59:06.131Z,12.03
2018-03-16T10:01:33.018Z,13.93
2018-03-16T10:03:59.962Z,12.47
2018-03-16T10:06:26.849Z,10.60
2018-03-16T10:08:53.789Z,10.13
2018-03-16T10:11:20.828Z,10.43
2018-03-16T10:13:47.808Z,9.90
2018-03-16T10:16:14.688Z,9.20
2018-03-16T10:18:41.644Z,8.70
2018-03-16T10:21:08.571Z,8.53
2018-03-16T10:23:36.242Z,8.30
2018-03-16T10:26:03.190Z,9.10
2018-03-16T10:28:30.143Z,7.80
2018-03-16T10:30:57.080Z,8.77
2018-03-16T10:33:23.957Z,8.30
2018-03-16T10:35:50.909Z,9.30
2018-03-16T10:38:17.895Z,8.20
2018-03-16T10:40:44.840Z,8.83
2018-03-16T10:43:11.707Z,8.57
2018-03-16T10:45:38.650Z,8.27
2018-03-16T10:48:05.597Z,9.90
2018-03-16T10:50:32.540Z,9.60
2018-03-16T10:52:59.460Z,10.40
2018-03-16T10:55:26.412Z,10.93
2018-03-16T10:57:54.059Z,10.87
2018-03-16T11:00:27.034Z,10.67
2018-03-16T11:02:54.051Z,9.67
2018-03-16T11:05:26.951Z,10.00
2018-03-16T11:07:57.866Z,12.90
2018-03-16T11:10:24.852Z,11.43
2018-03-16T11:13:00.211Z,11.97
2018-03-16T11:15:27.476Z,11.27
2018-03-16T11:17:55.175Z,11.63
2018-03-16T11:20:22.039Z,11.27
2018-03-16T11:22:48.927Z,12.27
2018-03-16T11:25:16.665Z,11.10
2018-03-16T11:27:43.539Z,10.90
2018-03-16T11:30:10.496Z,12.83
2018-03-16T11:32:37.355Z,11.00
2018-03-16T11:35:04.307Z,12.30
2018-03-16T11:37:31.208Z,12.37
2018-03-16T11:39:58.192Z,11.40
2018-03-16T11:42:25.139Z,10.60
2018-03-16T11:44:52.068Z,10.27
2018-03-16T11:47:18.995Z,11.00
2018-03-16T11:49:45.939Z,10.93
2018-03-16T11:52:12.806Z,9.20
2018-03-16T11:54:39.686Z,9.47
2018-03-16T11:57:06.620Z,8.97
2018-03-16T11:59:33.564Z,9.10
2018-03-16T12:02:00.536Z,9.63
2018-03-16T12:04:27.509Z,10.53
2018-03-16T12:06:54.409Z,10.23
2018-03-16T12:09:21.347Z,11.23
2018-03-16T12:11:48.219Z,9.70
2018-03-16T12:14:15.239Z,10.30
2018-03-16T12:16:42.180Z,9.63
2018-03-16T12:19:09.059Z,9.90
2018-03-16T12:21:35.953Z,9.33
2018-03-16T12:24:02.955Z,9.13
2018-03-16T12:26:29.850Z,9.57
2018-03-16T12:28:57.529Z,8.37
2018-03-16T12:31:24.394Z,7.47
2018-03-16T12:33:51.344Z,8.30
2018-03-16T12:36:18.224Z,9.60
2018-03-16T12:38:45.164Z,9.97
2018-03-16T12:41:12.153Z,9.40
2018-03-16T12:43:39.777Z,10.07
2018-03-16T12:46:06.646Z,11.60
2018-03-16T12:48:34.324Z,9.87
2018-03-16T12:51:01.205Z,11.20
2018-03-16T12:53:28.202Z,11.17
2018-03-16T12:55:55.114Z,9.60
2018-03-16T12:58:22.066Z,10.60
2018-03-16T13:00:48.948Z,11.47
2018-03-16T13:03:16.756Z,10.60
2018-03-16T13:05:43.623Z,11.00
2018-03-16T13:08:10.572Z,10.90
2018-03-16T13:10:37.464Z,11.00
2018-03-16T13:13:04.405Z,11.73
2018-03-16T13:15:31.412Z,12.50
2018-03-16T13:17:58.924Z,13.17
2018-03-16T13:20:25.885Z,12.27
2018-03-16T13:22:52.757Z,10.87
2018-03-16T13:25:19.669Z,10.70
2018-03-16T13:27:46.933Z,8.90
2018-03-16T13:30:13.845Z,9.33
2018-03-16T13:32:40.810Z,9.80
2018-03-16T13:35:07.773Z,9.33
2018-03-16T13:37:34.654Z,11.07
2018-03-16T13:40:01.870Z,9.43
2018-03-16T13:42:28.834Z,7.17
2018-03-16T13:44:55.722Z,6.70
2018-03-16T13:47:22.669Z,7.60
2018-03-16T13:49:50.298Z,12.03
2018-03-16T13:52:17.178Z,7.97
2018-03-16T13:54:44.901Z,7.37
2018-03-16T13:57:11.788Z,9.97
2018-03-16T13:59:38.748Z,8.47
2018-03-16T14:02:05.688Z,10.30
2018-03-16T14:04:32.645Z,7.83
2018-03-16T14:06:59.526Z,6.00
2018-03-16T14:09:26.540Z,6.67
2018-03-16T14:11:53.496Z,6.93
2018-03-16T14:14:20.458Z,7.00
2018-03-16T14:16:47.389Z,7.23
2018-03-16T14:19:14.275Z,8.47
2018-03-16T14:21:42.000Z,8.57
2018-03-16T14:24:09.362Z,9.20
2018-03-16T14:26:44.127Z,9.50
2018-03-16T14:29:11.786Z,9.40
2018-03-16T14:31:38.700Z,10.13
2018-03-16T14:34:05.663Z,9.83
2018-03-16T14:36:32.600Z,10.20
2018-03-16T14:38:59.536Z,10.10
2018-03-16T14:41:26.522Z,10.77
2018-03-16T14:43:54.244Z,10.07
2018-03-16T14:46:21.115Z,11.40
2018-03-16T14:48:51.762Z,10.50
2018-03-16T14:51:19.046Z,10.70
2018-03-16T14:53:46.915Z,10.60
2018-03-16T14:56:14.271Z,8.83
2018-03-16T14:58:43.156Z,8.63
2018-03-16T15:01:11.352Z,7.87
2018-03-16T15:03:39.310Z,7.60
2018-03-16T15:06:09.470Z,7.40
2018-03-16T15:08:41.917Z,7.43
2018-03-16T15:11:08.912Z,9.63
2018-03-16T15:13:45.184Z,8.80
2018-03-16T15:16:13.259Z,17.60
2018-03-16T15:18:47.309Z,22.60
2018-03-16T15:21:24.209Z,26.80
2018-03-16T15:23:53.112Z,22.13
2018-03-16T15:26:34.210Z,24.67
2018-03-16T15:29:01.264Z,19.70
2018-03-16T15:31:36.671Z,21.73
2018-03-16T15:34:03.738Z,23.53
2018-03-16T15:36:41.630Z,25.90
2018-03-16T15:39:14.731Z,22.00
2018-03-16T15:41:50.549Z,21.73
2018-03-16T15:44:24.660Z,20.70
2018-03-16T15:46:59.470Z,22.07
2018-03-16T15:49:28.101Z,20.97
2018-03-16T15:52:04.365Z,18.73
2018-03-16T15:54:34.616Z,19.93
2018-03-16T15:57:07.104Z,18.40
2018-03-16T15:59:35.030Z,15.57
2018-03-16T16:02:02.050Z,19.40
2018-03-16T16:04:28.992Z,20.20
2018-03-16T16:06:56.619Z,18.57
2018-03-16T16:09:23.570Z,21.03
2018-03-16T16:11:50.453Z,18.53
2018-03-16T16:14:17.399Z,18.70
2018-03-16T16:16:44.265Z,21.60
2018-03-16T16:19:11.220Z,21.47
2018-03-16T16:21:38.116Z,21.03
2018-03-16T16:24:05.013Z,19.70
2018-03-16T16:26:31.992Z,15.87
2018-03-16T16:28:58.918Z,19.03
2018-03-16T16:31:25.929Z,20.50
2018-03-16T16:33:52.833Z,19.43
2018-03-16T16:36:19.776Z,18.73
2018-03-16T16:38:46.690Z,23.30
2018-03-16T16:41:13.712Z,20.67
2018-03-16T16:43:40.661Z,18.33
2018-03-16T16:46:08.472Z,16.20
2018-03-16T16:48:35.377Z,18.53
2018-03-16T16:51:02.289Z,21.47
2018-03-16T16:53:29.240Z,18.70
2018-03-16T16:55:56.935Z,20.10
2018-03-16T16:58:23.951Z,30.50
2018-03-16T17:00:50.928Z,26.95
2018-03-16T17:03:17.873Z,24.87
2018-03-16T17:05:44.756Z,24.40
2018-03-16T17:08:11.691Z,26.23
2018-03-16T17:10:38.566Z,24.60
2018-03-16T17:13:05.531Z,28.50
2018-03-16T17:15:32.414Z,24.00
2018-03-16T17:17:59.306Z,21.92
2018-03-16T17:20:26.254Z,28.80
2018-03-16T17:22:53.409Z,27.42
2018-03-16T17:25:20.389Z,30.93
2018-03-16T17:27:47.367Z,29.30
2018-03-16T17:30:14.292Z,28.42
2018-03-16T17:32:41.173Z,25.67
2018-03-16T17:35:08.130Z,21.10
2018-03-16T17:37:35.964Z,24.65
2018-03-16T17:40:02.978Z,21.75
2018-03-16T17:42:29.915Z,23.10
2018-03-16T17:44:57.589Z,25.08
2018-03-16T17:47:24.544Z,24.30
2018-03-16T17:49:51.485Z,19.05
2018-03-16T17:52:18.623Z,24.67
2018-03-16T17:54:46.623Z,20.75
2018-03-16T17:57:13.515Z,24.08
2018-03-16T17:59:40.749Z,19.05
2018-03-16T18:02:08.415Z,21.58
2018-03-16T18:04:35.372Z,23.42
2018-03-16T18:07:02.255Z,21.60
2018-03-16T18:09:29.227Z,24.73
2018-03-16T18:11:56.131Z,18.20
2018-03-16T18:14:23.855Z,21.23
2018-03-16T18:16:50.730Z,20.15
2018-03-16T18:19:18.456Z,22.52
2018-03-16T18:21:45.406Z,23.70
2018-03-16T18:24:12.358Z,25.62
2018-03-16T18:26:39.280Z,24.87
2018-03-16T18:29:06.251Z,23.55
2018-03-16T18:31:33.164Z,24.63
2018-03-16T18:34:00.190Z,23.60
2018-03-16T18:36:27.130Z,21.73
2018-03-16T18:38:54.136Z,21.42
2018-03-16T18:41:21.040Z,19.98
2018-03-16T18:43:47.995Z,18.52
2018-03-16T18:46:14.904Z,19.08
2018-03-16T18:48:42.539Z,19.45
2018-03-16T18:51:09.517Z,18.98
2018-03-16T18:53:36.528Z,19.40
2018-03-16T18:56:03.468Z,19.85
2018-03-16T18:58:30.429Z,18.27
2018-03-16T19:00:57.475Z,20.20
2018-03-16T19:03:24.359Z,17.98
2018-03-16T19:05:52.039Z,24.05
2018-03-16T19:08:18.955Z,19.35
2018-03-16T19:10:45.964Z,17.52
2018-03-16T19:13:12.880Z,18.45
2018-03-16T19:15:39.938Z,19.60
2018-03-16T19:18:06.808Z,19.17
2018-03-16T19:20:33.752Z,17.77
2018-03-16T19:23:00.744Z,21.17
2018-03-16T19:25:28.554Z,19.62
2018-03-16T19:27:55.416Z,20.08
2018-03-16T19:30:22.743Z,18.92
2018-03-16T19:32:49.688Z,21.65
2018-03-16T19:35:16.552Z,17.52
2018-03-16T19:37:43.489Z,20.55
2018-03-16T19:40:10.384Z,20.77
2018-03-16T19:42:37.392Z,21.02
2018-03-16T19:45:04.296Z,21.77
2018-03-16T19:47:44.789Z,18.12
2018-03-16T19:50:12.591Z,16.83
2018-03-16T19:52:39.672Z,18.58
2018-03-16T19:55:07.320Z,17.73
2018-03-16T19:57:41.252Z,14.38
2018-03-16T20:00:09.017Z,15.05
2018-03-16T20:02:36.647Z,17.33
2018-03-16T20:05:03.656Z,15.90
2018-03-16T20:07:35.678Z,15.30
2018-03-16T20:10:03.552Z,16.10
2018-03-16T20:12:31.216Z,16.12
2018-03-16T20:14:58.168Z,18.65
2018-03-16T20:17:25.772Z,18.15
2018-03-16T20:19:52.720Z,17.55
2018-03-16T20:22:19.593Z,20.70
2018-03-16T20:24:46.545Z,18.52
2018-03-16T20:27:13.468Z,17.55
2018-03-16T20:29:40.351Z,19.17
2018-03-16T20:32:08.098Z,18.62
2018-03-16T20:34:34.991Z,17.20
2018-03-16T20:37:01.931Z,18.52
2018-03-16T20:39:39.713Z,17.85
2018-03-16T20:42:19.046Z,18.33
2018-03-16T20:44:58.352Z,19.50
2018-03-16T20:47:37.069Z,19.52
2018-03-16T20:50:04.799Z,18.70
2018-03-16T20:52:43.612Z,19.33
2018-03-16T20:55:22.888Z,22.60
2018-03-16T20:58:00.912Z,26.02
2018-03-16T21:00:40.249Z,20.55
2018-03-16T21:03:13.293Z,19.75
2018-03-16T21:05:51.936Z,21.73
2018-03-16T21:08:30.451Z,19.48
2018-03-16T21:11:09.834Z,18.65
2018-03-16T21:13:37.399Z,20.30
2018-03-16T21:16:05.080Z,27.70
2018-03-16T21:18:43.720Z,21.75
2018-03-16T21:21:14.048Z,22.25
2018-03-16T21:23:53.560Z,21.87
2018-03-16T21:26:33.176Z,23.67
2018-03-16T21:29:12.483Z,21.50
2018-03-16T21:31:40.108Z,22.02
2018-03-16T21:34:21.593Z,22.42
2018-03-16T21:36:50.187Z,27.80
2018-03-16T21:39:24.446Z,25.12
2018-03-16T21:42:01.136Z,22.77
2018-03-16T21:44:40.002Z,28.42
2018-03-16T21:47:19.152Z,27.15
2018-03-16T21:49:46.736Z,23.20
2018-03-16T21:52:13.668Z,31.75
2018-03-16T21:54:52.524Z,31.60
2018-03-16T21:57:32.099Z,29.15
2018-03-16T22:00:12.110Z,30.92
2018-03-16T22:02:50.641Z,31.65
2018-03-16T22:05:29.904Z,31.40
2018-03-16T22:08:06.895Z,26.35
2018-03-16T22:10:46.161Z,28.67
2018-03-16T22:13:24.721Z,34.33
2018-03-16T22:16:04.237Z,31.35
2018-03-16T22:18:44.403Z,33.67
2018-03-16T22:21:14.395Z,29.58
2018-03-16T22:23:52.366Z,30.23
2018-03-16T22:26:20.811Z,31.90
2018-03-16T22:28:58.592Z,38.33
2018-03-16T22:31:26.265Z,36.58
2018-03-16T22:33:53.152Z,32.75
2018-03-16T22:36:20.101Z,36.08
2018-03-16T22:38:47.098Z,39.75
2018-03-16T22:41:14.016Z,35.25
2018-03-16T22:43:40.952Z,33.85
2018-03-16T22:46:07.944Z,33.35
2018-03-16T22:48:34.875Z,39.20
2018-03-16T22:51:01.748Z,34.05
2018-03-16T22:53:29.493Z,37.90
2018-03-16T22:55:56.480Z,37.75
2018-03-16T22:58:23.449Z,35.28
2018-03-16T23:00:50.454Z,32.47
2018-03-16T23:03:17.441Z,40.00
2018-03-16T23:05:44.435Z,30.02
2018-03-16T23:08:11.329Z,30.35
2018-03-16T23:10:38.216Z,33.78
2018-03-16T23:13:05.176Z,32.10
2018-03-16T23:15:32.128Z,34.60
2018-03-16T23:17:59.564Z,32.53
2018-03-16T23:20:26.495Z,35.95
2018-03-16T23:22:53.371Z,34.88
2018-03-16T23:25:20.321Z,38.15
2018-03-16T23:27:47.200Z,33.97
2018-03-16T23:30:15.067Z,31.02
2018-03-16T23:32:42.000Z,32.45
2018-03-16T23:35:08.931Z,34.63
2018-03-16T23:37:35.804Z,36.38
2018-03-16T23:40:02.876Z,35.20
2018-03-16T23:42:29.799Z,37.85
2018-03-16T23:44:56.804Z,34.80
2018-03-16T23:47:23.684Z,41.28
2018-03-16T23:49:51.351Z,38.92
2018-03-16T23:52:18.962Z,38.88
2018-03-16T23:54:45.919Z,36.28
2018-03-16T23:57:12.799Z,37.00
2018-03-16T23:59:40.496Z,37.00
